SAEZ/EZE METAR and TAF weather

Enter ICAO airport designator
Station Type Date Time Source
SAEZ METAR 2020/11/28 20:00 UTC NOAA

SAEZ 282000Z 33010KT CAVOK 24/17 Q1008 NOSIG


Station Type Date Time Source
SAEZ Decoded METAR 2020/11/28 20:00 UTC NOAA

Ezeiza Aerodrome, Argentina (SAEZ) 34-49S 058-32W 20M
Nov 28, 2020 - 03:00 PM EST / 2020.11.28 2000 UTC
Wind: from the NNW (330 degrees) at 12 MPH (10 KT):0
Visibility: greater than 7 mile(s):0
Temperature: 75 F (24 C)
Dew Point: 62 F (17 C)
Relative Humidity: 64%
Pressure (altimeter): 29.77 in. Hg (1008 hPa)
ob: SAEZ 282000Z 33010KT CAVOK 24/17 Q1008 NOSIG
cycle: 20

Station Type Date Time Source
SAEZ TAF 2020/11/28 18:18 UTC NOAA

TAF TAF SAEZ 281700Z 2818/2918 07010KT 8000 -RA SCT030 BKN050 TX30/2918Z TN18/2909Z
BECMG 2821/2900 VRB05KT 9999 BKN040
BECMG 2900/2903 23005KT 6000 BKN020 PROB30
TEMPO 2907/2911 2000 MIFG BKN008
BECMG 2912/2915 9999 BKN040

Example: see airport list